Holts Summit, Missouri
Current Conditions -  °F | °C
As of 7:53 PM on Thursday 18 Dec 2014 (Local Time) from KJEF Reporting Station
Overcast Overcast  
Wind Chill: 28°   Ceiling: 900
Heat Index: 34°   Visibility: 9mi
Dew Point: 30°   Wind: 7mph
Humidity: 85%   Direction: 80°E
Pressure: 30.26"   Gusts: NA
Location:  38.64°N, 92.12°W
Report Text: KJEF 190153Z 08006KT 9SM OVC009 01/M01 A3026 RMK AO2 SLP244 T00111011
Loading
Personal Weather Stations






























Interactive Weather Map New forecast layout! Learn more

10-Day Weather Forecast

Advertisements
Track Severe Weather on mobile